Time;durP1;ratioP1;P1;durP2;ratioP2;P2;SDS_P1;SDS_P2;PMS_P1;PMS_P2;Temp;Humidity;BMP_temperature;BMP_pressure;BME280_temperature;BME280_humidity;BME280_pressure;Samples;Min_cycle;Max_cycle;Signal;HPM_P1;HPM_P2
2023/06/10 10:15:02;;;;;;;;;13.00;9.75;;;;;;;;5070198;27;13384;-75
2023/06/10 10:17:27;;;;;;;;;10.25;8.00;;;;;;;;5068335;28;8963;-74
2023/06/10 10:20:03;;;;;;;;;11.00;8.33;;;;;;;;5052892;28;8825;-75
2023/06/10 10:22:31;;;;;;;;;8.00;7.25;;;;;;;;5052109;28;8819;-74
2023/06/10 10:24:59;;;;;;;;;10.25;7.50;;;;;;;;5047594;28;8829;-75
2023/06/10 10:27:28;;;;;;;;;9.75;7.25;;;;;;;;5046796;28;9583;-74
2023/06/10 10:29:54;;;;;;;;;7.25;7.25;;;;;;;;5047400;28;8922;-74
2023/06/10 10:32:24;;;;;;;;;10.00;8.67;;;;;;;;5047326;28;8962;-75
2023/06/10 10:34:58;;;;;;;;;7.25;7.25;;;;;;;;5062392;28;10836;-73
2023/06/10 10:37:24;;;;;;;;;7.75;7.00;;;;;;;;5062491;28;8795;-72
2023/06/10 10:39:49;;;;;;;;;9.00;8.00;;;;;;;;5047029;28;8779;-71
2023/06/10 10:42:16;;;;;;;;;8.00;8.00;;;;;;;;5047197;28;8921;-70
2023/06/10 10:44:41;;;;;;;;;8.50;8.50;;;;;;;;5062109;28;8803;-68
2023/06/10 10:47:10;;;;;;;;;10.00;8.00;;;;;;;;5044110;28;8878;-70
2023/06/10 10:49:36;;;;;;;;;11.50;10.50;;;;;;;;5060838;28;8927;-70
2023/06/10 10:52:05;;;;;;;;;9.00;8.00;;;;;;;;5066772;28;8946;-70
2023/06/10 10:54:32;;;;;;;;;10.50;9.00;;;;;;;;5065398;28;8849;-70
2023/06/10 10:57:10;;;;;;;;;8.00;7.25;;;;;;;;5066971;28;8843;-71
2023/06/10 10:59:52;;;;;;;;;9.00;9.00;;;;;;;;5066971;28;8831;-70
2023/06/10 11:02:38;;;;;;;;;12.25;10.00;;;;;;;;5066684;28;8801;-71
2023/06/10 11:05:04;;;;;;;;;8.50;8.25;;;;;;;;5066215;28;8781;-70
2023/06/10 11:07:30;;;;;;;;;9.67;7.33;;;;;;;;5066445;28;8793;-72
2023/06/10 11:10:21;;;;;;;;;7.25;7.25;;;;;;;;5066493;28;8832;-71
2023/06/10 11:12:52;;;;;;;;;13.25;12.00;;;;;;;;5067588;28;8801;-71
2023/06/10 11:15:22;;;;;;;;;10.50;10.00;;;;;;;;5086362;28;8776;-72
2023/06/10 11:18:06;;;;;;;;;12.00;9.00;;;;;;;;5102083;28;8807;-69
2023/06/10 11:20:50;;;;;;;;;12.25;10.25;;;;;;;;5085867;28;8946;-72
2023/06/10 11:23:27;;;;;;;;;9.00;6.75;;;;;;;;5068424;28;8808;-71
2023/06/10 11:26:11;;;;;;;;;10.00;8.50;;;;;;;;5062571;28;8842;-76
2023/06/10 11:28:37;;;;;;;;;9.00;8.00;;;;;;;;5052648;28;8937;-70
2023/06/10 11:31:02;;;;;;;;;12.00;10.33;;;;;;;;5051217;28;8913;-73
2023/06/10 11:33:27;;;;;;;;;9.67;8.33;;;;;;;;5061387;28;8843;-73
2023/06/10 11:35:53;;;;;;;;;15.67;10.00;;;;;;;;5058756;28;8965;-72
2023/06/10 11:38:19;;;;;;;;;11.00;9.33;;;;;;;;5063153;28;8812;-70
2023/06/10 11:40:51;;;;;;;;;10.33;10.00;;;;;;;;5072490;28;8784;-72
2023/06/10 11:43:19;;;;;;;;;10.25;8.25;;;;;;;;5072828;28;8800;-72
2023/06/10 11:45:45;;;;;;;;;7.00;7.00;;;;;;;;5064054;28;9047;-73
2023/06/10 11:48:10;;;;;;;;;10.33;9.67;;;;;;;;5046388;28;8951;-75
2023/06/10 11:50:36;;;;;;;;;8.33;8.33;;;;;;;;5072203;28;9535;-76
2023/06/10 11:53:01;;;;;;;;;7.00;6.00;;;;;;;;5072584;28;8831;-74
2023/06/10 11:55:40;;;;;;;;;13.00;11.67;;;;;;;;5071637;28;8793;-72
2023/06/10 11:58:12;;;;;;;;;8.25;8.25;;;;;;;;5064028;28;8802;-73
2023/06/10 12:00:43;;;;;;;;;10.50;8.00;;;;;;;;5070810;28;8820;-72
2023/06/10 12:03:08;;;;;;;;;10.25;9.50;;;;;;;;5071388;28;8851;-72
2023/06/10 12:05:34;;;;;;;;;5.50;5.50;;;;;;;;5070872;28;8792;-72
2023/06/10 12:08:09;;;;;;;;;10.00;9.67;;;;;;;;5063531;28;8847;-72
2023/06/10 12:10:39;;;;;;;;;7.75;6.50;;;;;;;;5070110;28;8872;-72
2023/06/10 12:13:04;;;;;;;;;8.50;8.50;;;;;;;;5068422;28;8820;-72
2023/06/10 12:15:30;;;;;;;;;8.00;8.00;;;;;;;;5053207;28;8938;-72
2023/06/10 12:17:56;;;;;;;;;10.00;8.00;;;;;;;;5067188;28;8788;-72
2023/06/10 12:20:28;;;;;;;;;9.33;9.33;;;;;;;;5071047;28;8792;-69
2023/06/10 12:22:53;;;;;;;;;10.00;8.50;;;;;;;;5071614;28;9527;-68
2023/06/10 12:25:24;;;;;;;;;7.00;7.00;;;;;;;;5053355;28;8835;-78
2023/06/10 12:27:51;;;;;;;;;7.75;6.00;;;;;;;;5058647;28;8812;-71
2023/06/10 12:30:19;;;;;;;;;9.75;7.25;;;;;;;;5071454;28;8804;-69
2023/06/10 12:32:45;;;;;;;;;3.00;3.00;;;;;;;;5069949;28;8808;-69
2023/06/10 12:35:12;;;;;;;;;6.00;4.25;;;;;;;;5071232;28;8784;-71
2023/06/10 12:37:38;;;;;;;;;5.75;3.00;;;;;;;;5066441;28;8820;-72
2023/06/10 12:40:06;;;;;;;;;8.33;6.67;;;;;;;;5058571;28;8815;-74
2023/06/10 12:42:33;;;;;;;;;4.25;4.25;;;;;;;;5059131;28;8784;-73
2023/06/10 12:45:00;;;;;;;;;6.00;3.50;;;;;;;;5071086;28;8792;-72
2023/06/10 12:47:44;;;;;;;;;2.75;2.00;;;;;;;;5066211;28;9671;-72
2023/06/10 12:50:11;;;;;;;;;5.00;4.00;;;;;;;;5059008;28;8811;-73
2023/06/10 12:52:37;;;;;;;;;2.00;2.00;;;;;;;;5059851;28;8823;-72
2023/06/10 12:55:03;;;;;;;;;3.00;2.33;;;;;;;;5051134;28;8778;-73
2023/06/10 12:57:29;;;;;;;;;2.00;2.00;;;;;;;;5054855;28;8831;-73
2023/06/10 13:00:00;;;;;;;;;4.67;4.67;;;;;;;;5071116;28;8780;-72
2023/06/10 13:02:25;;;;;;;;;2.00;2.00;;;;;;;;5070728;28;8789;-73
2023/06/10 13:04:51;;;;;;;;;3.67;2.00;;;;;;;;5070586;28;8807;-74
2023/06/10 13:07:16;;;;;;;;;3.00;3.00;;;;;;;;5066526;28;8823;-72
2023/06/10 13:09:42;;;;;;;;;3.67;2.33;;;;;;;;5052669;28;8927;-73
2023/06/10 13:12:08;;;;;;;;;4.33;4.33;;;;;;;;5070798;28;8780;-73
2023/06/10 13:14:33;;;;;;;;;2.00;1.00;;;;;;;;5070414;28;8808;-72
2023/06/10 13:16:58;;;;;;;;;3.00;3.00;;;;;;;;5068616;28;8800;-73
2023/06/10 13:19:23;;;;;;;;;4.33;4.33;;;;;;;;5069663;28;8816;-72
2023/06/10 13:21:49;;;;;;;;;2.33;2.33;;;;;;;;5070105;28;8788;-73
2023/06/10 13:24:14;;;;;;;;;3.00;3.00;;;;;;;;5069560;28;8820;-72
2023/06/10 13:26:40;;;;;;;;;7.00;7.00;;;;;;;;5070385;28;8784;-75
2023/06/10 13:29:05;;;;;;;;;4.00;4.00;;;;;;;;5061093;28;8834;-71
2023/06/10 13:31:31;;;;;;;;;6.33;3.33;;;;;;;;5059248;28;8803;-72
2023/06/10 13:33:57;;;;;;;;;4.00;4.00;;;;;;;;5050132;28;9304;-71
2023/06/10 13:36:22;;;;;;;;;6.00;6.00;;;;;;;;5050127;28;8782;-72
2023/06/10 13:38:48;;;;;;;;;7.00;6.00;;;;;;;;5051836;28;9140;-70
2023/06/10 13:41:13;;;;;;;;;5.00;4.00;;;;;;;;5050559;28;8914;-70
2023/06/10 13:43:39;;;;;;;;;5.00;4.00;;;;;;;;5070332;28;8811;-70
2023/06/10 13:46:04;;;;;;;;;4.00;4.00;;;;;;;;5070249;28;8776;-69
2023/06/10 13:48:29;;;;;;;;;6.67;4.67;;;;;;;;5066481;28;8792;-72
2023/06/10 13:50:55;;;;;;;;;5.00;4.00;;;;;;;;5070174;28;8777;-69
2023/06/10 13:53:20;;;;;;;;;4.33;4.33;;;;;;;;5069206;28;8811;-69
2023/06/10 13:55:45;;;;;;;;;5.67;5.00;;;;;;;;5064633;28;8813;-72
2023/06/10 13:58:11;;;;;;;;;4.00;4.00;;;;;;;;5052697;28;8781;-73
2023/06/10 14:00:36;;;;;;;;;5.00;5.00;;;;;;;;5068884;28;8859;-73
2023/06/10 14:03:03;;;;;;;;;3.67;3.67;;;;;;;;5060664;28;8821;-73
2023/06/10 14:05:28;;;;;;;;;4.75;3.00;;;;;;;;5049788;28;9771;-70
2023/06/10 14:07:53;;;;;;;;;5.00;4.00;;;;;;;;5047382;28;8814;-71
2023/06/10 14:10:18;;;;;;;;;6.00;5.00;;;;;;;;5052180;28;9066;-73
2023/06/10 14:12:44;;;;;;;;;4.67;4.33;;;;;;;;5064868;28;8797;-72
2023/06/10 14:15:09;;;;;;;;;8.00;5.33;;;;;;;;5049338;28;8789;-75
2023/06/10 14:17:34;;;;;;;;;4.00;4.00;;;;;;;;5050196;28;9573;-76
2023/06/10 14:20:00;;;;;;;;;3.33;3.00;;;;;;;;5067498;28;8812;-83
2023/06/10 14:22:25;;;;;;;;;5.00;4.33;;;;;;;;5070223;28;9526;-70
2023/06/10 14:24:50;;;;;;;;;6.00;6.00;;;;;;;;5070081;28;8792;-74
2023/06/10 14:27:15;;;;;;;;;8.67;7.00;;;;;;;;5069659;28;8822;-71
2023/06/10 14:29:41;;;;;;;;;7.00;7.00;;;;;;;;5069629;28;8788;-80
2023/06/10 14:32:06;;;;;;;;;9.00;7.33;;;;;;;;5069913;28;8884;-76
2023/06/10 14:34:33;;;;;;;;;5.33;5.33;;;;;;;;5067553;28;8855;-75
2023/06/10 14:36:59;;;;;;;;;5.75;5.00;;;;;;;;5068957;28;8967;-75
2023/06/10 14:39:25;;;;;;;;;6.75;6.00;;;;;;;;5068568;28;9637;-75
2023/06/10 14:41:52;;;;;;;;;6.00;5.00;;;;;;;;5068797;28;8804;-76
2023/06/10 14:44:17;;;;;;;;;6.75;6.00;;;;;;;;5068960;28;8812;-76
2023/06/10 14:46:42;;;;;;;;;5.00;5.00;;;;;;;;5050971;28;8838;-76
2023/06/10 14:49:08;;;;;;;;;4.00;3.33;;;;;;;;5069414;28;8808;-75
2023/06/10 14:51:34;;;;;;;;;5.00;4.00;;;;;;;;5069781;28;8789;-75
2023/06/10 14:53:59;;;;;;;;;5.00;4.33;;;;;;;;5069688;28;8812;-76
2023/06/10 14:56:25;;;;;;;;;4.33;4.33;;;;;;;;5069241;28;8800;-75
2023/06/10 14:58:51;;;;;;;;;5.75;5.25;;;;;;;;5069902;28;8784;-75
2023/06/10 15:01:16;;;;;;;;;5.00;5.00;;;;;;;;5073171;28;8815;-75
2023/06/10 15:03:41;;;;;;;;;6.67;6.00;;;;;;;;5073472;28;8804;-75
2023/06/10 15:06:06;;;;;;;;;5.00;5.00;;;;;;;;5073208;28;9542;-75
2023/06/10 15:08:32;;;;;;;;;4.00;3.00;;;;;;;;5073386;28;8802;-75
2023/06/10 15:10:57;;;;;;;;;5.00;5.00;;;;;;;;5073269;28;8784;-74
2023/06/10 15:13:22;;;;;;;;;7.00;5.00;;;;;;;;5072687;28;8836;-75
2023/06/10 15:15:47;;;;;;;;;5.00;3.67;;;;;;;;5073370;28;8788;-75
2023/06/10 15:18:13;;;;;;;;;4.00;4.00;;;;;;;;5073165;28;9542;-75
2023/06/10 15:20:38;;;;;;;;;5.00;5.00;;;;;;;;5073031;28;8830;-75
2023/06/10 15:23:03;;;;;;;;;1.33;1.33;;;;;;;;5073134;28;8834;-75
2023/06/10 15:25:28;;;;;;;;;4.33;4.33;;;;;;;;5073062;28;8760;-76
2023/06/10 15:27:54;;;;;;;;;4.00;4.00;;;;;;;;5072560;28;8906;-76
2023/06/10 15:30:19;;;;;;;;;5.67;5.00;;;;;;;;5055122;28;8804;-74
2023/06/10 15:32:45;;;;;;;;;2.00;2.00;;;;;;;;5072932;28;8772;-75
2023/06/10 15:35:10;;;;;;;;;4.33;4.33;;;;;;;;5072894;28;8857;-74
2023/06/10 15:37:35;;;;;;;;;5.00;5.00;;;;;;;;5072865;28;8796;-75
2023/06/10 15:40:01;;;;;;;;;4.00;4.00;;;;;;;;5072737;28;8769;-75
2023/06/10 15:42:26;;;;;;;;;5.00;5.00;;;;;;;;5054702;28;9569;-75
2023/06/10 15:44:52;;;;;;;;;5.00;4.00;;;;;;;;5072242;28;8784;-74
2023/06/10 15:47:18;;;;;;;;;5.75;4.25;;;;;;;;5072809;28;8820;-74
2023/06/10 15:49:43;;;;;;;;;6.33;5.33;;;;;;;;5072465;28;9549;-74
2023/06/10 15:52:08;;;;;;;;;5.00;5.00;;;;;;;;5072590;28;8776;-74
2023/06/10 15:54:34;;;;;;;;;6.33;6.00;;;;;;;;5072554;28;8850;-74
2023/06/10 15:56:59;;;;;;;;;9.00;6.33;;;;;;;;5054421;28;8803;-74
2023/06/10 15:59:24;;;;;;;;;4.33;4.33;;;;;;;;5072683;28;8807;-75
2023/06/10 16:01:50;;;;;;;;;4.67;4.33;;;;;;;;5072812;28;8921;-76
2023/06/10 16:04:15;;;;;;;;;4.67;4.67;;;;;;;;5072104;28;8906;-75
2023/06/10 16:06:40;;;;;;;;;6.00;6.00;;;;;;;;5072087;28;8800;-75
2023/06/10 16:09:06;;;;;;;;;8.00;8.00;;;;;;;;5072232;28;8817;-73
2023/06/10 16:11:31;;;;;;;;;6.00;5.00;;;;;;;;5072376;28;8794;-74
2023/06/10 16:13:56;;;;;;;;;5.00;5.00;;;;;;;;5072031;28;8824;-71
